createdAt,value
2023-06-24T00:00:33.876Z,100
2023-06-24T00:10:35.530Z,100
2023-06-24T00:20:37.757Z,100
2023-06-24T00:40:41.957Z,100
2023-06-24T01:00:45.881Z,100
2023-06-24T01:10:48.063Z,100
2023-06-24T01:20:50.710Z,100
2023-06-24T01:40:55.025Z,100
2023-06-24T03:11:14.466Z,100
2023-06-24T03:21:16.431Z,100
2023-06-24T03:31:18.976Z,100
2023-06-24T03:51:30.510Z,100
2023-06-24T07:42:19.898Z,100
2023-06-24T07:52:21.611Z,100
2023-06-24T08:02:24.008Z,100
2023-06-24T08:12:26.191Z,100
2023-06-24T08:22:28.775Z,100
2023-06-24T08:32:30.763Z,100
2023-06-24T08:42:33.170Z,100
2023-06-24T08:52:35.139Z,100
2023-06-24T09:02:37.116Z,100
2023-06-24T09:12:39.020Z,100
2023-06-24T09:32:43.841Z,100
2023-06-24T09:52:47.712Z,100
2023-06-24T10:12:52.363Z,100
2023-06-24T10:22:54.613Z,100
2023-06-24T10:32:56.957Z,100
2023-06-24T10:42:58.581Z,100
2023-06-24T10:53:01.016Z,100
2023-06-24T11:03:03.321Z,100
2023-06-24T11:23:08.098Z,100
2023-06-24T11:43:12.427Z,100
2023-06-24T11:53:14.130Z,100
2023-06-24T12:03:16.615Z,100
2023-06-24T12:23:20.342Z,85
2023-06-24T12:33:22.399Z,74
2023-06-24T12:43:24.688Z,72
2023-06-24T12:53:26.864Z,68
2023-06-24T13:03:29.381Z,71
2023-06-24T13:13:31.105Z,86
2023-06-24T13:23:33.056Z,95
2023-06-24T13:33:35.405Z,96
2023-06-24T13:53:39.488Z,83
2023-06-24T14:03:41.334Z,74
2023-06-24T14:13:43.771Z,80
2023-06-24T14:23:46.414Z,79
2023-06-24T14:33:48.838Z,72
2023-06-24T14:43:50.515Z,78
2023-06-24T14:53:52.975Z,78
2023-06-24T15:03:55.654Z,73
2023-06-24T15:13:57.574Z,73
2023-06-24T15:24:00.170Z,78
2023-06-24T15:34:02.764Z,70
2023-06-24T15:44:04.455Z,77
2023-06-24T15:54:06.896Z,80
2023-06-24T16:04:08.860Z,85
2023-06-24T16:14:10.889Z,82
2023-06-24T16:24:12.632Z,90
2023-06-24T16:34:23.604Z,86
2023-06-24T16:44:16.815Z,88
2023-06-24T16:54:18.546Z,93
2023-06-24T17:04:20.424Z,100
2023-06-24T17:14:22.452Z,100
2023-06-24T17:24:24.641Z,99
2023-06-24T17:34:26.598Z,100
2023-06-24T17:44:28.363Z,100
2023-06-24T18:14:34.593Z,100
2023-06-24T18:24:37.019Z,100
2023-06-24T18:34:39.553Z,100
2023-06-24T18:44:42.139Z,100
2023-06-24T19:04:47.152Z,100
2023-06-24T19:14:49.604Z,100
2023-06-24T19:24:51.369Z,100
2023-06-24T19:44:56.121Z,100
2023-06-24T19:54:58.420Z,100
2023-06-24T20:05:01.059Z,100
2023-06-24T20:15:03.356Z,100
2023-06-24T20:25:05.022Z,100
2023-06-24T20:35:07.238Z,100
2023-06-24T21:35:19.972Z,100
2023-06-24T21:45:22.044Z,100
2023-06-24T21:55:24.296Z,100
2023-06-24T22:25:29.673Z,100
2023-06-24T23:15:40.883Z,100
2023-06-24T23:25:43.555Z,100
2023-06-24T23:45:47.821Z,100
2023-06-24T23:55:49.934Z,100
